Time;durP1;ratioP1;P1;durP2;ratioP2;P2;SDS_P1;SDS_P2;PMS_P1;PMS_P2;Temp;Humidity;BMP_temperature;BMP_pressure;BME280_temperature;BME280_humidity;BME280_pressure;Samples;Min_cycle;Max_cycle;Signal;HPM_P1;HPM_P2
2022/03/07 00:00:32;;;;;;;;;76.00;58.00;;;;;3.60;56.32;102100.28;5023323;28;45428;-68
2022/03/07 00:02:57;;;;;;;;;71.75;52.75;;;;;3.69;56.03;102108.78;5037222;28;45483;-68
2022/03/07 00:05:23;;;;;;;;;70.00;50.25;;;;;3.72;55.60;102105.09;5024285;28;45275;-68
2022/03/07 00:07:48;;;;;;;;;65.75;51.50;;;;;3.70;55.82;102113.22;5024282;28;45361;-68
2022/03/07 00:10:13;;;;;;;;;71.25;54.75;;;;;3.65;56.10;102101.84;5024481;28;45779;-68
2022/03/07 00:12:39;;;;;;;;;59.50;47.75;;;;;3.63;56.43;102100.16;5024619;28;45471;-68
2022/03/07 00:15:05;;;;;;;;;67.50;52.00;;;;;3.49;56.31;102087.34;5039635;28;47034;-68
2022/03/07 00:17:30;;;;;;;;;64.75;50.25;;;;;3.62;56.34;102104.66;5022901;28;45522;-68
2022/03/07 00:19:55;;;;;;;;;66.25;52.50;;;;;3.60;56.05;102100.28;5024604;28;46117;-68
2022/03/07 00:22:21;;;;;;;;;71.00;54.25;;;;;3.57;56.18;102098.63;5024708;28;45307;-69
2022/03/07 00:24:46;;;;;;;;;71.00;54.25;;;;;3.55;56.08;102113.94;5022530;28;47193;-68
2022/03/07 00:27:12;;;;;;;;;64.25;53.25;;;;;3.52;56.63;102119.44;5022717;28;45385;-68
2022/03/07 00:29:37;;;;;;;;;60.50;50.25;;;;;3.56;56.34;102118.38;5024161;28;45538;-67
2022/03/07 00:32:03;;;;;;;;;64.50;50.50;;;;;3.54;56.09;102112.19;5024434;28;45466;-67
2022/03/07 00:34:28;;;;;;;;;66.75;53.75;;;;;3.50;56.55;102108.78;5022648;28;47898;-67
2022/03/07 00:36:54;;;;;;;;;62.25;48.25;;;;;3.40;56.84;102109.25;5023547;28;45433;-67
2022/03/07 00:39:19;;;;;;;;;69.00;49.75;;;;;3.44;56.18;102118.91;5023913;28;45697;-68
2022/03/07 00:41:45;;;;;;;;;43.00;38.00;;;;;3.43;56.06;102109.13;5024588;28;45375;-68
2022/03/07 00:44:10;;;;;;;;;57.75;48.00;;;;;3.48;56.33;102109.78;5022504;28;47145;-67
2022/03/07 00:46:35;;;;;;;;;65.75;53.50;;;;;3.42;56.55;102112.75;5023684;28;45409;-67
2022/03/07 00:49:01;;;;;;;;;69.50;52.50;;;;;3.39;56.74;102115.56;5023746;28;45782;-67
2022/03/07 00:51:26;;;;;;;;;66.50;52.00;;;;;3.30;56.92;102108.78;5024432;28;45485;-67
2022/03/07 00:53:51;;;;;;;;;67.00;51.25;;;;;3.33;56.92;102108.66;5021963;28;47868;-68
2022/03/07 00:56:17;;;;;;;;;49.00;36.25;;;;;3.31;56.41;102105.16;5022231;28;45391;-68
2022/03/07 00:58:42;;;;;;;;;68.50;52.75;;;;;3.32;56.66;102109.59;5022273;28;45332;-68
2022/03/07 01:01:08;;;;;;;;;64.50;51.50;;;;;3.36;56.70;102113.03;5036118;28;45253;-67
2022/03/07 01:03:33;;;;;;;;;67.00;50.50;;;;;3.32;56.62;102106.03;5022377;28;46507;-69
2022/03/07 01:05:59;;;;;;;;;64.50;50.25;;;;;3.30;56.88;102110.59;5023339;28;45439;-67
2022/03/07 01:08:26;;;;;;;;;60.75;48.00;;;;;3.25;56.89;102112.63;5023293;28;45359;-67
2022/03/07 01:10:52;;;;;;;;;69.00;52.00;;;;;3.19;57.51;102111.09;5024097;28;45244;-67
2022/03/07 01:13:18;;;;;;;;;70.00;53.50;;;;;3.08;57.59;102106.19;5021891;28;46631;-67
2022/03/07 01:15:44;;;;;;;;;59.25;48.25;;;;;3.08;57.84;102111.56;5023399;28;45269;-67
2022/03/07 01:18:09;;;;;;;;;70.75;52.25;;;;;3.12;57.42;102113.19;5023134;28;45395;-68
2022/03/07 01:20:35;;;;;;;;;62.50;48.00;;;;;3.08;57.39;102108.88;5023840;28;45524;-67
2022/03/07 01:23:00;;;;;;;;;61.75;48.25;;;;;3.06;57.77;102105.41;5022953;28;45357;-67
2022/03/07 01:25:26;;;;;;;;;60.75;49.00;;;;;3.09;57.56;102099.88;5023249;28;45327;-67
2022/03/07 01:27:52;;;;;;;;;66.25;51.50;;;;;2.92;57.54;102070.22;5021835;28;45351;-67
2022/03/07 01:30:17;;;;;;;;;67.75;49.75;;;;;3.10;57.54;102108.81;5023696;28;45513;-67
2022/03/07 01:32:42;;;;;;;;;64.00;48.25;;;;;3.10;57.57;102101.63;5021688;28;47161;-67
2022/03/07 01:35:08;;;;;;;;;58.50;47.75;;;;;3.02;57.55;102101.09;5022996;28;45266;-67
2022/03/07 01:37:34;;;;;;;;;65.50;48.75;;;;;2.96;57.55;102090.63;5023019;28;45202;-67
2022/03/07 01:39:59;;;;;;;;;57.75;49.00;;;;;2.92;57.96;102102.41;5023520;28;45347;-67
2022/03/07 01:42:24;;;;;;;;;56.25;48.50;;;;;2.84;57.89;102096.53;5021502;28;45613;-67
2022/03/07 01:44:50;;;;;;;;;64.25;49.75;;;;;2.85;57.91;102095.56;5023146;28;45309;-67
2022/03/07 01:47:15;;;;;;;;;58.25;42.50;;;;;2.84;58.10;102092.97;5022989;28;45735;-68
2022/03/07 01:49:41;;;;;;;;;68.00;51.00;;;;;2.84;57.99;102091.16;5023532;28;45641;-67
2022/03/07 01:52:07;;;;;;;;;65.25;48.50;;;;;2.79;58.31;102090.47;5022417;28;46567;-67
2022/03/07 01:54:33;;;;;;;;;64.25;51.00;;;;;2.78;58.18;102090.56;5022433;28;45515;-67
2022/03/07 01:56:59;;;;;;;;;64.75;49.50;;;;;2.79;58.22;102085.09;5033429;28;45446;-67
2022/03/07 01:59:26;;;;;;;;;63.50;48.25;;;;;2.81;58.23;102085.94;5013151;28;45517;-69
2022/03/07 02:01:53;;;;;;;;;50.00;43.00;;;;;2.82;58.00;102086.78;5022590;28;45493;-68
2022/03/07 02:04:19;;;;;;;;;62.50;52.50;;;;;2.80;58.05;102084.19;5022563;28;45269;-67
2022/03/07 02:06:46;;;;;;;;;55.50;44.75;;;;;2.83;57.75;102085.88;5022638;28;45224;-67
2022/03/07 02:09:12;;;;;;;;;60.75;46.25;;;;;2.80;57.96;102086.84;5022990;28;45419;-67
2022/03/07 02:11:38;;;;;;;;;59.00;44.75;;;;;2.77;57.63;102081.63;5022143;28;45809;-67
2022/03/07 02:14:14;;;;;;;;;55.75;46.00;;;;;2.82;57.93;102074.25;5020523;28;45425;-67
2022/03/07 02:16:40;;;;;;;;;62.50;48.25;;;;;2.80;57.54;102069.88;5023243;28;45367;-67
2022/03/07 02:19:05;;;;;;;;;38.75;36.75;;;;;2.80;57.71;102069.88;5024325;28;45861;-67
2022/03/07 02:21:34;;;;;;;;;65.75;45.75;;;;;2.72;57.80;102075.56;5024705;28;47003;-67
2022/03/07 02:23:59;;;;;;;;;49.25;44.50;;;;;2.64;58.19;102064.28;5024667;28;45930;-66
2022/03/07 02:26:25;;;;;;;;;49.75;40.75;;;;;2.68;57.85;102071.28;5026166;28;45254;-66
2022/03/07 02:28:50;;;;;;;;;63.00;45.50;;;;;2.71;57.83;102071.16;5012995;28;45260;-67
2022/03/07 02:31:18;;;;;;;;;65.25;50.50;;;;;2.60;58.63;102066.25;5024552;28;48351;-67
2022/03/07 02:33:43;;;;;;;;;58.25;46.75;;;;;2.58;58.18;102057.38;5024327;28;45430;-67
2022/03/07 02:36:09;;;;;;;;;55.75;41.50;;;;;2.59;58.11;102047.53;5026046;28;45933;-66
2022/03/07 02:38:34;;;;;;;;;58.75;44.00;;;;;2.62;57.78;102061.72;5026051;28;45311;-66
2022/03/07 02:41:01;;;;;;;;;51.00;45.25;;;;;2.62;58.11;102055.47;5025824;28;46297;-66
2022/03/07 02:43:26;;;;;;;;;60.50;48.25;;;;;2.54;58.34;102057.59;5025870;28;45390;-66
2022/03/07 02:45:52;;;;;;;;;60.75;43.25;;;;;2.52;58.38;102054.97;5025713;28;45250;-66
2022/03/07 02:48:18;;;;;;;;;58.75;39.75;;;;;2.55;58.23;102048.63;5025001;28;45293;-66
2022/03/07 02:50:45;;;;;;;;;60.00;47.50;;;;;2.55;58.26;102048.63;5025735;28;45303;-66
2022/03/07 02:53:11;;;;;;;;;63.75;48.75;;;;;2.51;58.58;102052.34;5025274;28;45323;-66
2022/03/07 02:55:36;;;;;;;;;67.75;49.00;;;;;2.38;58.99;102045.75;5024538;28;45336;-66
2022/03/07 02:58:02;;;;;;;;;54.00;46.00;;;;;2.40;58.52;102035.84;5013033;28;45300;-66
2022/03/07 03:00:27;;;;;;;;;58.50;47.50;;;;;2.35;58.79;102036.03;5012311;28;45421;-67
2022/03/07 03:02:52;;;;;;;;;55.50;44.50;;;;;2.39;59.02;102040.34;5025489;28;45330;-66
2022/03/07 03:05:18;;;;;;;;;66.00;48.00;;;;;2.29;59.06;102042.53;5025548;28;45656;-66
2022/03/07 03:07:43;;;;;;;;;70.50;48.00;;;;;2.25;59.29;102038.25;5024473;28;45460;-67
2022/03/07 03:10:09;;;;;;;;;45.50;42.50;;;;;2.20;59.70;102036.66;5025283;28;46323;-67
2022/03/07 03:12:34;;;;;;;;;60.25;44.25;;;;;2.24;59.58;102036.50;5023850;28;45567;-67
2022/03/07 03:15:00;;;;;;;;;56.50;44.25;;;;;2.21;59.58;102036.59;5025073;28;45502;-67
2022/03/07 03:17:26;;;;;;;;;62.25;48.75;;;;;2.14;59.85;102039.59;5041166;28;45331;-66
2022/03/07 03:19:53;;;;;;;;;65.00;47.00;;;;;2.12;59.91;102028.09;5011930;28;45707;-66
2022/03/07 03:22:21;;;;;;;;;68.00;47.25;;;;;2.05;60.30;102031.94;5025207;28;45244;-66
2022/03/07 03:24:47;;;;;;;;;59.75;48.25;;;;;2.05;60.14;102030.13;5025180;28;45628;-66
2022/03/07 03:27:13;;;;;;;;;62.50;49.75;;;;;1.94;60.17;102019.00;5024763;28;45522;-68
2022/03/07 03:29:38;;;;;;;;;63.75;46.00;;;;;1.98;60.36;102030.44;5024312;28;46157;-66
2022/03/07 03:32:04;;;;;;;;;59.00;45.50;;;;;1.98;60.33;102023.28;5023332;28;46219;-67
2022/03/07 03:34:30;;;;;;;;;57.25;48.75;;;;;1.87;60.64;102025.53;5040554;28;45421;-66
2022/03/07 03:36:55;;;;;;;;;59.00;44.75;;;;;1.86;60.94;102026.47;5025317;28;45410;-66
2022/03/07 03:39:20;;;;;;;;;56.00;45.50;;;;;1.84;61.03;102033.69;5023200;28;46840;-66
2022/03/07 03:41:46;;;;;;;;;59.00;46.75;;;;;1.87;60.87;102033.56;5024783;28;45464;-66
2022/03/07 03:44:11;;;;;;;;;69.25;49.00;;;;;1.79;61.02;102022.28;5025118;28;45269;-65
2022/03/07 03:46:37;;;;;;;;;63.50;50.25;;;;;1.79;61.04;102030.31;5025246;28;45499;-66
2022/03/07 03:49:04;;;;;;;;;62.75;47.75;;;;;1.81;60.97;102041.88;5024709;28;46346;-66
2022/03/07 03:51:29;;;;;;;;;52.00;46.50;;;;;1.76;61.04;102035.78;5024712;28;45299;-66
2022/03/07 03:53:55;;;;;;;;;56.75;47.00;;;;;1.76;60.79;102038.47;5024626;28;45152;-67
2022/03/07 03:56:20;;;;;;;;;50.25;42.50;;;;;1.86;60.94;102040.75;5024834;28;45224;-67
2022/03/07 03:58:46;;;;;;;;;45.25;43.00;;;;;1.91;60.83;102035.19;5011017;28;45574;-67
2022/03/07 04:01:11;;;;;;;;;59.00;44.75;;;;;1.93;60.57;102036.00;5023405;28;45322;-67
2022/03/07 04:03:36;;;;;;;;;53.00;44.75;;;;;1.85;60.56;102030.94;5024600;28;45822;-66
2022/03/07 04:06:04;;;;;;;;;54.75;45.00;;;;;1.78;61.32;102045.53;5024783;28;45638;-66
2022/03/07 04:08:33;;;;;;;;;61.00;46.25;;;;;1.75;61.44;102042.13;5023313;28;46214;-67
2022/03/07 04:10:58;;;;;;;;;63.75;49.00;;;;;1.67;61.51;102044.22;5023098;28;45421;-67
2022/03/07 04:13:24;;;;;;;;;62.75;48.75;;;;;1.69;61.47;102040.53;5023070;28;45406;-67
2022/03/07 04:15:49;;;;;;;;;59.75;47.25;;;;;1.65;61.35;102041.59;5023261;28;45317;-67
2022/03/07 04:18:15;;;;;;;;;54.75;45.25;;;;;1.65;61.51;102038.91;5023628;28;46130;-67
2022/03/07 04:20:40;;;;;;;;;58.75;45.75;;;;;1.67;61.97;102041.53;5022901;28;45414;-67
2022/03/07 04:23:05;;;;;;;;;62.00;45.00;;;;;1.64;61.40;102042.53;5022652;28;45338;-66
2022/03/07 04:25:33;;;;;;;;;58.25;48.25;;;;;1.64;61.69;102038.97;5023045;28;45241;-66
2022/03/07 04:28:00;;;;;;;;;55.50;45.50;;;;;1.64;61.34;102034.47;5021913;28;48005;-67
2022/03/07 04:30:25;;;;;;;;;51.75;42.75;;;;;1.68;61.39;102043.28;5022923;28;45323;-67
2022/03/07 04:32:51;;;;;;;;;54.50;44.50;;;;;1.71;61.17;102044.03;5022850;28;45378;-67
2022/03/07 04:35:16;;;;;;;;;53.25;47.00;;;;;1.65;60.99;102048.75;5022873;28;45564;-67
2022/03/07 04:37:41;;;;;;;;;59.25;47.00;;;;;1.60;61.22;102040.03;5023212;28;46112;-67
2022/03/07 04:40:16;;;;;;;;;65.75;47.00;;;;;1.62;61.13;102043.50;5021331;28;45513;-67
2022/03/07 04:42:43;;;;;;;;;51.25;39.50;;;;;1.69;61.02;102051.25;5018902;28;45398;-67
2022/03/07 04:45:13;;;;;;;;;65.00;48.00;;;;;1.69;61.14;102042.31;5023069;28;45310;-67
2022/03/07 04:47:39;;;;;;;;;52.50;45.00;;;;;1.72;60.79;102053.81;5022841;28;45426;-66
2022/03/07 04:50:06;;;;;;;;;56.75;43.00;;;;;1.70;60.82;102046.75;5022307;28;46154;-67
2022/03/07 04:52:31;;;;;;;;;63.50;45.75;;;;;1.66;61.21;102039.78;5022634;28;45351;-67
2022/03/07 04:54:57;;;;;;;;;52.75;44.50;;;;;1.68;61.03;102056.69;5023804;28;45480;-67
2022/03/07 04:57:22;;;;;;;;;53.00;44.25;;;;;1.62;61.00;102054.22;5015830;28;45575;-67
2022/03/07 04:59:48;;;;;;;;;53.25;44.75;;;;;1.62;61.19;102054.22;5018116;28;45655;-67
2022/03/07 05:02:13;;;;;;;;;61.25;46.50;;;;;1.49;61.45;102027.91;5024002;28;45350;-67
2022/03/07 05:04:40;;;;;;;;;60.25;48.00;;;;;1.59;61.24;102054.34;5024075;28;45524;-67
2022/03/07 05:07:05;;;;;;;;;66.50;52.00;;;;;1.49;61.23;102044.00;5023518;28;45496;-67
2022/03/07 05:09:31;;;;;;;;;51.50;42.00;;;;;1.55;61.77;102057.13;5023453;28;45227;-67
2022/03/07 05:11:57;;;;;;;;;62.50;47.25;;;;;1.47;61.32;102047.66;5023917;28;45339;-67
2022/03/07 05:14:22;;;;;;;;;64.25;46.50;;;;;1.53;61.43;102045.59;5023977;28;45529;-66
2022/03/07 05:16:48;;;;;;;;;50.00;42.50;;;;;1.50;61.38;102040.38;5023326;28;46137;-66
2022/03/07 05:19:13;;;;;;;;;61.50;49.00;;;;;1.51;61.48;102052.84;5023344;28;45306;-66
2022/03/07 05:21:38;;;;;;;;;47.50;43.25;;;;;1.51;61.62;102050.16;5023612;28;45344;-66
2022/03/07 05:24:04;;;;;;;;;55.00;46.75;;;;;1.52;61.72;102057.28;5023724;28;45361;-66
2022/03/07 05:26:30;;;;;;;;;52.50;45.75;;;;;1.55;60.98;102057.13;5021845;28;47143;-66
2022/03/07 05:28:55;;;;;;;;;62.25;46.25;;;;;1.42;61.26;102031.78;5021466;28;46196;-66
2022/03/07 05:31:21;;;;;;;;;59.75;49.25;;;;;1.50;61.51;102044.88;5023224;28;45421;-66
2022/03/07 05:33:46;;;;;;;;;56.75;41.50;;;;;1.39;61.33;102026.50;5023481;28;45469;-68
2022/03/07 05:36:12;;;;;;;;;56.25;46.50;;;;;1.48;61.13;102042.25;5023038;28;45412;-66
2022/03/07 05:38:38;;;;;;;;;49.50;44.75;;;;;1.50;61.02;102045.75;5022882;28;45291;-66
2022/03/07 05:41:03;;;;;;;;;54.75;44.25;;;;;1.45;61.22;102052.22;5021798;28;45442;-67
2022/03/07 05:43:28;;;;;;;;;57.75;46.50;;;;;1.48;61.14;102052.94;5022092;28;45252;-67
2022/03/07 05:45:54;;;;;;;;;65.25;48.00;;;;;1.47;61.16;102053.88;5022999;28;46099;-66
2022/03/07 05:48:19;;;;;;;;;54.75;43.75;;;;;1.42;61.06;102047.84;5021377;28;45377;-66
2022/03/07 05:50:45;;;;;;;;;49.25;41.75;;;;;1.42;61.11;102052.31;5020907;28;45300;-67
2022/03/07 05:53:11;;;;;;;;;51.75;45.75;;;;;1.41;61.41;102050.56;5021319;28;45367;-66
2022/03/07 05:55:37;;;;;;;;;63.25;46.75;;;;;1.34;60.89;102047.25;5022794;28;46762;-66
2022/03/07 05:58:02;;;;;;;;;67.00;46.75;;;;;1.33;61.30;102061.56;5021386;28;45577;-68
2022/03/07 06:00:29;;;;;;;;;63.25;48.00;;;;;1.31;61.26;102068.81;5022891;28;45653;-69
2022/03/07 06:02:55;;;;;;;;;53.25;43.50;;;;;1.25;61.73;102066.31;5021952;28;45326;-68
2022/03/07 06:05:21;;;;;;;;;62.75;44.00;;;;;1.18;62.04;102060.31;5021367;28;47154;-68
2022/03/07 06:07:46;;;;;;;;;69.00;51.75;;;;;1.14;61.85;102064.06;5022316;28;45383;-66
2022/03/07 06:10:11;;;;;;;;;61.50;50.00;;;;;1.17;62.07;102074.63;5021068;28;45323;-66
2022/03/07 06:12:37;;;;;;;;;61.50;48.25;;;;;1.14;62.42;102072.09;5035203;28;45370;-67
2022/03/07 06:15:04;;;;;;;;;51.75;41.75;;;;;1.13;62.25;102064.13;5021629;28;45266;-67
2022/03/07 06:17:31;;;;;;;;;56.50;43.00;;;;;1.16;62.23;102080.06;5021904;28;45397;-67
2022/03/07 06:19:56;;;;;;;;;64.25;47.50;;;;;1.14;62.17;102074.78;5022355;28;45316;-68
2022/03/07 06:22:22;;;;;;;;;60.00;47.00;;;;;1.13;62.12;102069.47;5022260;28;45320;-67
2022/03/07 06:24:47;;;;;;;;;62.25;47.75;;;;;1.12;62.20;102078.41;5021216;28;46553;-67
2022/03/07 06:27:12;;;;;;;;;62.75;44.00;;;;;1.13;62.31;102077.50;5021991;28;45453;-68
2022/03/07 06:29:38;;;;;;;;;56.75;45.75;;;;;1.15;62.89;102079.19;5021580;28;45303;-66
2022/03/07 06:32:03;;;;;;;;;40.50;33.00;;;;;1.14;62.48;102073.91;5022785;28;45346;-66
2022/03/07 06:34:31;;;;;;;;;67.50;50.25;;;;;1.13;62.44;102077.50;5021637;28;45385;-68
2022/03/07 06:36:56;;;;;;;;;55.50;46.25;;;;;1.10;62.72;102070.44;5020292;28;45337;-66
2022/03/07 06:39:25;;;;;;;;;66.50;52.00;;;;;1.12;62.95;102075.75;5020333;28;45261;-68
2022/03/07 06:41:51;;;;;;;;;68.00;52.50;;;;;1.14;62.60;102081.94;5021104;28;45560;-67
2022/03/07 06:44:16;;;;;;;;;53.75;43.25;;;;;1.20;62.51;102079.03;5021953;28;46384;-67
2022/03/07 06:46:42;;;;;;;;;70.75;49.50;;;;;1.27;62.18;102085.88;5022129;28;45393;-69
2022/03/07 06:49:07;;;;;;;;;67.50;53.50;;;;;1.27;62.51;102093.03;5021612;28;45361;-68
2022/03/07 06:51:32;;;;;;;;;56.00;45.25;;;;;1.35;62.22;102083.81;5021075;28;45434;-65
2022/03/07 06:53:58;;;;;;;;;56.25;45.50;;;;;1.40;62.08;102086.31;5021522;28;45940;-68
2022/03/07 06:56:23;;;;;;;;;57.50;49.25;;;;;1.45;61.99;102079.88;5020522;28;45363;-67
2022/03/07 06:58:49;;;;;;;;;54.50;46.75;;;;;1.49;61.34;102076.13;5008002;28;45277;-66
2022/03/07 07:01:14;;;;;;;;;67.50;49.00;;;;;1.55;61.26;102070.53;5020765;28;45503;-66
2022/03/07 07:03:39;;;;;;;;;54.50;46.00;;;;;1.62;61.00;102076.53;5022997;28;47145;-66
2022/03/07 07:06:05;;;;;;;;;60.50;43.75;;;;;1.68;60.73;102070.09;5024850;28;45341;-67
2022/03/07 07:08:30;;;;;;;;;60.25;50.75;;;;;1.71;60.70;102084.22;5023284;28;45378;-67
2022/03/07 07:10:56;;;;;;;;;63.75;50.50;;;;;1.80;60.43;102077.63;5025515;28;45411;-67
2022/03/07 07:13:21;;;;;;;;;60.75;49.00;;;;;1.84;60.28;102077.44;5023642;28;47755;-66
2022/03/07 07:15:54;;;;;;;;;58.75;48.75;;;;;1.92;60.20;102086.03;5024417;28;45402;-66
2022/03/07 07:18:21;;;;;;;;;69.25;53.50;;;;;1.99;60.02;102091.16;5023042;28;45437;-66
2022/03/07 07:20:46;;;;;;;;;70.00;46.50;;;;;2.04;59.47;102081.16;5023402;28;45629;-67
2022/03/07 07:23:11;;;;;;;;;62.50;49.75;;;;;2.01;59.77;102074.09;5023901;28;46207;-67
2022/03/07 07:25:37;;;;;;;;;65.75;51.25;;;;;2.08;59.49;102075.59;5023869;28;45296;-66
2022/03/07 07:28:02;;;;;;;;;62.00;49.75;;;;;2.15;59.54;102077.09;5024189;28;45455;-67
2022/03/07 07:30:28;;;;;;;;;71.50;49.00;;;;;2.17;58.84;102072.53;5024006;28;45338;-67
2022/03/07 07:32:53;;;;;;;;;64.75;48.25;;;;;2.21;58.48;102070.59;5022801;28;47114;-67
2022/03/07 07:35:18;;;;;;;;;67.25;48.00;;;;;2.26;58.33;102076.66;5023856;28;45319;-67
2022/03/07 07:37:44;;;;;;;;;63.75;48.50;;;;;2.26;58.51;102085.59;5024366;28;45315;-67
2022/03/07 07:40:10;;;;;;;;;58.00;46.75;;;;;2.37;58.49;102084.25;5024730;28;45345;-68
2022/03/07 07:42:35;;;;;;;;;64.50;48.50;;;;;2.44;58.00;102080.38;5024364;28;46278;-67
2022/03/07 07:45:01;;;;;;;;;58.75;47.00;;;;;2.33;57.94;102070.09;5022783;28;45260;-70
2022/03/07 07:47:26;;;;;;;;;54.25;45.50;;;;;2.61;57.80;102085.91;5022443;28;45245;-68
2022/03/07 07:49:51;;;;;;;;;67.75;52.50;;;;;2.80;57.31;102086.84;5024247;28;45149;-67
2022/03/07 07:52:17;;;;;;;;;59.75;46.00;;;;;2.94;56.63;102067.47;5024194;28;45204;-66
2022/03/07 07:54:42;;;;;;;;;62.25;48.75;;;;;3.20;56.45;102069.00;5023884;28;45469;-67
2022/03/07 07:57:08;;;;;;;;;64.75;48.25;;;;;3.40;55.61;102067.16;5022647;28;45323;-67
2022/03/07 07:59:34;;;;;;;;;63.50;46.25;;;;;3.62;55.31;102061.66;5024618;28;45608;-69
2022/03/07 08:01:59;;;;;;;;;60.75;47.50;;;;;3.93;54.71;102055.69;5023678;28;45678;-67
2022/03/07 08:04:24;;;;;;;;;71.75;47.00;;;;;4.08;53.57;102064.84;5023174;28;45251;-67
2022/03/07 08:06:50;;;;;;;;;58.50;48.25;;;;;4.16;52.54;102058.13;5023356;28;45846;-67
2022/03/07 08:09:15;;;;;;;;;50.25;43.50;;;;;4.41;52.52;102068.53;5022822;28;45375;-69
2022/03/07 08:11:41;;;;;;;;;53.25;43.25;;;;;4.67;52.04;102070.78;5023723;28;45295;-67
2022/03/07 08:14:07;;;;;;;;;56.75;43.25;;;;;4.80;51.96;102071.03;5023166;28;45473;-67
2022/03/07 08:16:32;;;;;;;;;54.25;43.00;;;;;4.99;51.40;102065.53;5022315;28;45458;-67
2022/03/07 08:18:57;;;;;;;;;62.25;47.25;;;;;5.13;50.85;102078.28;5024305;28;45411;-67
2022/03/07 08:21:25;;;;;;;;;60.50;47.25;;;;;5.20;49.92;102068.91;5023443;28;46056;-68
2022/03/07 08:23:53;;;;;;;;;64.75;47.00;;;;;5.27;49.23;102067.63;5021658;28;45325;-68
2022/03/07 08:26:18;;;;;;;;;62.50;47.75;;;;;5.33;49.43;102060.09;5039135;28;45368;-70
2022/03/07 08:28:43;;;;;;;;;53.00;45.25;;;;;5.52;48.39;102059.97;5023931;28;45732;-66
2022/03/07 08:31:09;;;;;;;;;50.50;44.25;;;;;5.70;49.19;102068.84;5022318;28;46939;-68
2022/03/07 08:33:34;;;;;;;;;60.50;48.50;;;;;5.83;48.64;102064.53;5023977;28;45410;-67
2022/03/07 08:35:59;;;;;;;;;58.75;46.00;;;;;5.88;47.83;102050.81;5022080;28;45884;-67
2022/03/07 08:38:25;;;;;;;;;63.75;48.50;;;;;5.78;46.88;102040.50;5022612;28;45309;-67
2022/03/07 08:40:51;;;;;;;;;55.00;45.25;;;;;5.88;47.84;102062.47;5023338;28;46287;-67
2022/03/07 08:43:16;;;;;;;;;64.00;48.50;;;;;6.04;47.05;102038.19;5022285;28;45936;-68
2022/03/07 08:45:41;;;;;;;;;58.00;45.75;;;;;6.14;46.63;102048.34;5023635;28;45302;-68
2022/03/07 08:48:07;;;;;;;;;66.75;49.75;;;;;6.20;45.87;102029.16;5022366;28;45291;-67
2022/03/07 08:50:32;;;;;;;;;61.50;48.50;;;;;6.48;46.80;102032.91;5034775;28;47306;-68
2022/03/07 08:52:57;;;;;;;;;60.75;47.25;;;;;6.79;47.02;102031.94;5013805;28;45276;-67
2022/03/07 08:55:23;;;;;;;;;58.75;44.00;;;;;6.89;46.01;102033.13;5022878;28;46012;-68
2022/03/07 08:57:48;;;;;;;;;59.00;46.00;;;;;6.98;44.63;102041.53;5018838;28;45488;-67
2022/03/07 09:00:15;;;;;;;;;61.75;45.75;;;;;7.13;44.86;102044.25;5021403;28;46434;-68
2022/03/07 09:02:40;;;;;;;;;56.25;46.50;;;;;7.20;43.84;102042.91;5038787;28;45829;-68
2022/03/07 09:05:07;;;;;;;;;62.00;43.75;;;;;7.32;43.93;102034.03;5023246;28;45216;-68
2022/03/07 09:07:32;;;;;;;;;56.25;43.75;;;;;7.38;43.51;102033.63;5023694;28;45343;-68
2022/03/07 09:09:58;;;;;;;;;51.75;43.00;;;;;7.44;43.04;102033.28;5022833;28;45948;-68
2022/03/07 09:12:27;;;;;;;;;52.00;41.50;;;;;7.45;41.99;102040.44;5023118;28;45334;-68
2022/03/07 09:14:55;;;;;;;;;57.75;45.50;;;;;7.56;42.70;102032.50;5021611;28;45459;-68
2022/03/07 09:17:20;;;;;;;;;62.25;43.00;;;;;7.74;41.51;102031.28;5024274;28;45340;-67
2022/03/07 09:19:46;;;;;;;;;50.50;40.75;;;;;7.60;42.04;102034.00;5017750;28;48053;-68
2022/03/07 09:22:11;;;;;;;;;48.00;40.25;;;;;7.60;42.72;102027.72;5030411;28;45261;-68
2022/03/07 09:24:36;;;;;;;;;59.75;45.00;;;;;7.71;42.03;102025.22;5022939;28;45239;-68
2022/03/07 09:27:02;;;;;;;;;54.75;42.50;;;;;7.78;41.98;102018.44;5020538;28;45257;-68
2022/03/07 09:29:27;;;;;;;;;53.25;37.75;;;;;7.82;41.22;102022.69;5022808;28;46341;-67
2022/03/07 09:31:53;;;;;;;;;56.75;44.00;;;;;7.99;42.16;102025.16;5023127;28;45247;-67
2022/03/07 09:34:18;;;;;;;;;45.75;39.50;;;;;8.24;42.20;102040.66;5023275;28;45543;-67
2022/03/07 09:36:44;;;;;;;;;49.00;38.25;;;;;8.39;41.25;102034.25;5023430;28;45563;-67
2022/03/07 09:39:09;;;;;;;;;47.25;40.25;;;;;8.42;40.93;102034.03;5021142;28;47423;-67
2022/03/07 09:41:34;;;;;;;;;56.00;43.00;;;;;8.64;40.57;102032.56;5018232;28;45271;-67
2022/03/07 09:44:00;;;;;;;;;47.75;41.50;;;;;8.71;40.10;102014.94;5021300;28;45362;-70
2022/03/07 09:46:26;;;;;;;;;38.50;30.50;;;;;8.68;39.99;102026.88;5021871;28;45589;-67
2022/03/07 09:48:54;;;;;;;;;46.00;41.00;;;;;8.80;39.04;102023.28;5034442;28;47896;-66
2022/03/07 09:51:19;;;;;;;;;51.25;42.75;;;;;8.86;37.95;102020.16;5021444;28;45345;-69
2022/03/07 09:53:45;;;;;;;;;54.75;43.00;;;;;8.96;38.46;102023.09;5022540;28;45287;-67
2022/03/07 09:56:10;;;;;;;;;54.75;40.50;;;;;9.12;39.02;102006.63;5021688;28;45605;-67
2022/03/07 09:58:35;;;;;;;;;48.00;39.50;;;;;9.26;39.32;102012.81;5017762;28;46734;-67
2022/03/07 10:01:07;;;;;;;;;44.25;37.50;;;;;9.14;37.76;102000.09;5013890;28;45375;-67
2022/03/07 10:03:32;;;;;;;;;42.25;37.50;;;;;9.11;38.31;102011.19;5022904;28;45171;-67
2022/03/07 10:05:58;;;;;;;;;50.25;40.00;;;;;8.95;37.81;102010.53;5023261;28;45243;-68
2022/03/07 10:08:26;;;;;;;;;51.75;40.00;;;;;8.71;37.98;102001.38;5022192;28;45256;-67
2022/03/07 10:10:53;;;;;;;;;52.50;41.25;;;;;8.59;37.35;102003.97;5022546;28;45250;-67
2022/03/07 10:13:20;;;;;;;;;48.75;41.00;;;;;8.64;37.97;102005.47;5022665;28;45333;-66
2022/03/07 10:15:57;;;;;;;;;45.75;38.00;;;;;8.76;38.26;102010.94;5023189;28;45373;-68
2022/03/07 10:18:22;;;;;;;;;46.50;38.50;;;;;8.65;37.47;101996.38;5022665;28;45390;-68
2022/03/07 10:20:53;;;;;;;;;51.25;37.00;;;;;8.68;38.45;102001.59;5022277;28;45248;-67
2022/03/07 10:23:19;;;;;;;;;43.00;37.00;;;;;8.57;38.38;101999.63;5022456;28;45300;-68
2022/03/07 10:25:46;;;;;;;;;51.75;40.50;;;;;8.46;37.30;102008.50;5022902;28;45342;-67
2022/03/07 10:28:12;;;;;;;;;47.75;40.50;;;;;8.38;38.06;101986.47;5021964;28;45490;-68
2022/03/07 10:30:38;;;;;;;;;42.25;39.25;;;;;8.25;38.03;101992.81;5022178;28;45330;-67
2022/03/07 10:33:06;;;;;;;;;48.75;39.75;;;;;7.86;37.26;101985.47;5022128;28;45201;-67
2022/03/07 10:35:38;;;;;;;;;51.50;39.25;;;;;7.80;38.21;101987.63;5022096;28;45335;-67
2022/03/07 10:38:06;;;;;;;;;43.50;36.50;;;;;7.60;37.62;101985.34;5023678;28;45252;-68
2022/03/07 10:40:34;;;;;;;;;48.00;41.75;;;;;7.40;37.19;101983.03;5040907;28;45277;-68
2022/03/07 10:43:00;;;;;;;;;44.50;39.00;;;;;7.24;37.65;101976.88;5025790;28;45337;-68
2022/03/07 10:45:29;;;;;;;;;53.75;40.00;;;;;7.08;38.11;101985.09;5025822;28;45591;-68
2022/03/07 10:48:00;;;;;;;;;51.50;38.75;;;;;6.99;38.16;101973.03;5025592;28;46589;-69
2022/03/07 10:50:28;;;;;;;;;35.75;34.75;;;;;6.90;38.83;101973.59;5025550;28;45427;-68
2022/03/07 10:53:03;;;;;;;;;44.50;33.50;;;;;6.78;38.81;101959.97;5025560;28;45312;-69
2022/03/07 10:55:31;;;;;;;;;46.00;38.75;;;;;6.75;39.26;101982.63;5025903;28;45307;-68
2022/03/07 10:58:05;;;;;;;;;57.50;41.75;;;;;6.69;39.29;101969.50;5025382;28;45462;-68
2022/03/07 11:00:31;;;;;;;;;50.25;40.25;;;;;6.53;38.71;101971.41;5025734;28;45450;-68
2022/03/07 11:02:56;;;;;;;;;33.75;32.00;;;;;6.59;39.90;101963.78;5024374;28;45261;-68
2022/03/07 11:05:22;;;;;;;;;35.25;33.75;;;;;6.64;39.15;101972.50;5025789;28;45262;-67
2022/03/07 11:07:51;;;;;;;;;33.00;31.00;;;;;6.56;38.91;101972.09;5024773;28;45999;-68
2022/03/07 11:10:16;;;;;;;;;40.50;34.00;;;;;6.59;39.74;101958.38;5025486;28;45312;-68